DLH5EL EDDF-EGPH
Flight info
| Callsign | DLH5EL |
|---|---|
| Flight time | 1h 34m |
| Altitude | 34000 |
| Route | OBOKA Z28 DIBIR DCT BUDIP DCT GODOS DCT AGPED |
| Aircraft | A320/M-SDE3FGHIRWY/LB1 |
Departure
| Time | 2026-05-05 13:43 |
|---|---|
| Airport | Frankfurt Main Airport (EDDF) |
Arrival
| Time | 2026-05-05 15:18 |
|---|---|
| Airport | Edinburgh Airport (EGPH) |
| Time | Latitude | Longitude | Altitude | Speed | Heading |
|---|---|---|---|---|---|
| 2026-05-05 13:18 | 50.04854 | 8.57520 | 359 ft | 0 kts | 203° |
| 2026-05-05 13:28 | 50.04868 | 8.57530 | 363 ft | 3 kts | 204° |
| 2026-05-05 13:29 | 50.04890 | 8.57545 | 364 ft | 3 kts | 202° |
| 2026-05-05 13:29 | 50.04912 | 8.57556 | 359 ft | 3 kts | 181° |
| 2026-05-05 13:29 | 50.04929 | 8.57549 | 358 ft | 2 kts | 115° |
| 2026-05-05 13:29 | 50.04924 | 8.57566 | 365 ft | 3 kts | 115° |
| 2026-05-05 13:30 | 50.04913 | 8.57599 | 358 ft | 3 kts | 115° |
| 2026-05-05 13:30 | 50.04905 | 8.57628 | 359 ft | 1 kts | 115° |
| 2026-05-05 13:33 | 50.04901 | 8.57641 | 363 ft | 4 kts | 114° |
| 2026-05-05 13:33 | 50.04879 | 8.57718 | 360 ft | 11 kts | 113° |
| 2026-05-05 13:34 | 50.04844 | 8.57846 | 362 ft | 13 kts | 114° |
| 2026-05-05 13:34 | 50.04782 | 8.57917 | 359 ft | 11 kts | 161° |
| 2026-05-05 13:34 | 50.04712 | 8.57901 | 361 ft | 11 kts | 226° |
| 2026-05-05 13:34 | 50.04680 | 8.57783 | 362 ft | 12 kts | 250° |
| 2026-05-05 13:35 | 50.04642 | 8.57626 | 362 ft | 21 kts | 249° |
| 2026-05-05 13:35 | 50.04588 | 8.57405 | 361 ft | 22 kts | 249° |
| 2026-05-05 13:35 | 50.04535 | 8.57176 | 360 ft | 22 kts | 250° |
| 2026-05-05 13:35 | 50.04487 | 8.56979 | 359 ft | 19 kts | 250° |
| 2026-05-05 13:36 | 50.04446 | 8.56802 | 361 ft | 17 kts | 250° |
| 2026-05-05 13:36 | 50.04401 | 8.56619 | 361 ft | 18 kts | 249° |
| 2026-05-05 13:36 | 50.04360 | 8.56447 | 360 ft | 16 kts | 251° |
| 2026-05-05 13:36 | 50.04325 | 8.56296 | 360 ft | 14 kts | 250° |
| 2026-05-05 13:37 | 50.04293 | 8.56159 | 358 ft | 14 kts | 250° |
| 2026-05-05 13:37 | 50.04256 | 8.56008 | 354 ft | 16 kts | 249° |
| 2026-05-05 13:37 | 50.04211 | 8.55824 | 358 ft | 21 kts | 248° |
| 2026-05-05 13:37 | 50.04161 | 8.55618 | 358 ft | 19 kts | 251° |
| 2026-05-05 13:38 | 50.04118 | 8.55434 | 355 ft | 17 kts | 250° |
| 2026-05-05 13:38 | 50.04082 | 8.55279 | 361 ft | 13 kts | 249° |
| 2026-05-05 13:38 | 50.04053 | 8.55159 | 360 ft | 11 kts | 249° |
| 2026-05-05 13:38 | 50.04030 | 8.55068 | 355 ft | 16 kts | 249° |
| 2026-05-05 13:39 | 50.03983 | 8.54868 | 354 ft | 25 kts | 249° |
| 2026-05-05 13:39 | 50.03920 | 8.54608 | 356 ft | 26 kts | 249° |
| 2026-05-05 13:39 | 50.03855 | 8.54355 | 349 ft | 24 kts | 237° |
| 2026-05-05 13:39 | 50.03781 | 8.54143 | 351 ft | 22 kts | 249° |
| 2026-05-05 13:40 | 50.03728 | 8.53929 | 347 ft | 20 kts | 249° |
| 2026-05-05 13:40 | 50.03682 | 8.53727 | 344 ft | 19 kts | 249° |
| 2026-05-05 13:40 | 50.03634 | 8.53539 | 337 ft | 18 kts | 248° |
| 2026-05-05 13:40 | 50.03591 | 8.53363 | 336 ft | 17 kts | 250° |
| 2026-05-05 13:41 | 50.03552 | 8.53197 | 339 ft | 16 kts | 250° |
| 2026-05-05 13:41 | 50.03515 | 8.53040 | 337 ft | 15 kts | 249° |
| 2026-05-05 13:41 | 50.03478 | 8.52893 | 336 ft | 14 kts | 246° |
| 2026-05-05 13:41 | 50.03441 | 8.52756 | 333 ft | 13 kts | 247° |
| 2026-05-05 13:42 | 50.03405 | 8.52627 | 332 ft | 12 kts | 244° |
| 2026-05-05 13:42 | 50.03340 | 8.52593 | 335 ft | 10 kts | 180° |
| 2026-05-05 13:42 | 50.03177 | 8.52598 | 335 ft | 52 kts | 179° |
| 2026-05-05 13:42 | 50.02601 | 8.52599 | 335 ft | 111 kts | 179° |
| 2026-05-05 13:43 | 50.01661 | 8.52612 | 334 ft | 156 kts | 180° |
| 2026-05-05 13:43 | 50.00482 | 8.52592 | 662 ft | 172 kts | 181° |
| 2026-05-05 13:43 | 49.99270 | 8.52585 | 1383 ft | 177 kts | 180° |
| 2026-05-05 13:43 | 49.98006 | 8.52253 | 1777 ft | 196 kts | 203° |
| 2026-05-05 13:44 | 49.96832 | 8.50973 | 2089 ft | 221 kts | 224° |
| 2026-05-05 13:44 | 49.95704 | 8.49241 | 2857 ft | 227 kts | 224° |
| 2026-05-05 13:44 | 49.94582 | 8.47541 | 3836 ft | 225 kts | 224° |
| 2026-05-05 13:44 | 49.93445 | 8.45834 | 4679 ft | 229 kts | 223° |
| 2026-05-05 13:45 | 49.92254 | 8.44059 | 5185 ft | 249 kts | 223° |
| 2026-05-05 13:45 | 49.91089 | 8.41952 | 5782 ft | 265 kts | 240° |
| 2026-05-05 13:45 | 49.90584 | 8.39185 | 6578 ft | 273 kts | 268° |
| 2026-05-05 13:45 | 49.91001 | 8.36301 | 7369 ft | 281 kts | 297° |
| 2026-05-05 13:46 | 49.92303 | 8.34016 | 8159 ft | 288 kts | 321° |
| 2026-05-05 13:46 | 49.93886 | 8.32139 | 8987 ft | 292 kts | 322° |
| 2026-05-05 13:46 | 49.95515 | 8.30222 | 9815 ft | 295 kts | 322° |
| 2026-05-05 13:46 | 49.97181 | 8.28253 | 10303 ft | 311 kts | 322° |
| 2026-05-05 13:47 | 49.98961 | 8.26136 | 10568 ft | 333 kts | 321° |
| 2026-05-05 13:47 | 50.00836 | 8.23896 | 11153 ft | 343 kts | 321° |
| 2026-05-05 13:47 | 50.02738 | 8.21612 | 11866 ft | 348 kts | 321° |
| 2026-05-05 13:47 | 50.04666 | 8.19295 | 12597 ft | 352 kts | 321° |
| 2026-05-05 13:48 | 50.06615 | 8.16949 | 13320 ft | 356 kts | 321° |
| 2026-05-05 13:48 | 50.08589 | 8.14573 | 13946 ft | 360 kts | 321° |
| 2026-05-05 13:48 | 50.10581 | 8.12173 | 14547 ft | 364 kts | 321° |
| 2026-05-05 13:48 | 50.12596 | 8.09747 | 15149 ft | 367 kts | 321° |
| 2026-05-05 13:49 | 50.14629 | 8.07299 | 15740 ft | 371 kts | 321° |
| 2026-05-05 13:49 | 50.16679 | 8.04829 | 16344 ft | 374 kts | 321° |
| 2026-05-05 13:49 | 50.18748 | 8.02326 | 16938 ft | 378 kts | 321° |
| 2026-05-05 13:49 | 50.20830 | 7.99804 | 17520 ft | 381 kts | 321° |
| 2026-05-05 13:50 | 50.22934 | 7.97251 | 18106 ft | 385 kts | 321° |
| 2026-05-05 13:50 | 50.25056 | 7.94672 | 18612 ft | 388 kts | 321° |
| 2026-05-05 13:50 | 50.27197 | 7.92073 | 19101 ft | 391 kts | 321° |
| 2026-05-05 13:50 | 50.29354 | 7.89452 | 19613 ft | 394 kts | 321° |
| 2026-05-05 13:51 | 50.31528 | 7.86804 | 20108 ft | 398 kts | 321° |
| 2026-05-05 13:51 | 50.33718 | 7.84136 | 20596 ft | 401 kts | 321° |
| 2026-05-05 13:51 | 50.35923 | 7.81446 | 21077 ft | 403 kts | 321° |
| 2026-05-05 13:51 | 50.38147 | 7.78731 | 21550 ft | 407 kts | 321° |
| 2026-05-05 13:52 | 50.40382 | 7.75995 | 22015 ft | 410 kts | 321° |
| 2026-05-05 13:52 | 50.42633 | 7.73233 | 22491 ft | 413 kts | 320° |
| 2026-05-05 13:52 | 50.44903 | 7.70448 | 22937 ft | 416 kts | 321° |
| 2026-05-05 13:52 | 50.47187 | 7.67643 | 23375 ft | 418 kts | 320° |
| 2026-05-05 13:53 | 50.49488 | 7.64812 | 23756 ft | 421 kts | 320° |
| 2026-05-05 13:53 | 50.51799 | 7.61963 | 24137 ft | 424 kts | 320° |
| 2026-05-05 13:53 | 50.54124 | 7.59093 | 24511 ft | 426 kts | 320° |
| 2026-05-05 13:53 | 50.56462 | 7.56204 | 24874 ft | 429 kts | 320° |
| 2026-05-05 13:54 | 50.58814 | 7.53297 | 25241 ft | 431 kts | 320° |
| 2026-05-05 13:54 | 50.61174 | 7.50378 | 25611 ft | 433 kts | 320° |
| 2026-05-05 13:54 | 50.63550 | 7.47434 | 25971 ft | 435 kts | 319° |
| 2026-05-05 13:54 | 50.65932 | 7.44476 | 26338 ft | 437 kts | 319° |
| 2026-05-05 13:55 | 50.68325 | 7.41498 | 26710 ft | 439 kts | 319° |
| 2026-05-05 13:55 | 50.70729 | 7.38501 | 27076 ft | 441 kts | 319° |
| 2026-05-05 13:55 | 50.73118 | 7.35456 | 27429 ft | 442 kts | 315° |
| 2026-05-05 13:55 | 50.75246 | 7.31976 | 27782 ft | 440 kts | 306° |
| 2026-05-05 13:56 | 50.77052 | 7.28089 | 28153 ft | 439 kts | 301° |
| 2026-05-05 13:56 | 50.78816 | 7.24131 | 28494 ft | 441 kts | 301° |
| 2026-05-05 13:56 | 50.80582 | 7.20176 | 28842 ft | 443 kts | 301° |
| 2026-05-05 13:56 | 50.82368 | 7.16174 | 29180 ft | 444 kts | 301° |
| 2026-05-05 13:57 | 50.84153 | 7.12175 | 29517 ft | 446 kts | 301° |
| 2026-05-05 13:57 | 50.85942 | 7.08156 | 29842 ft | 448 kts | 301° |
| 2026-05-05 13:57 | 50.87733 | 7.04116 | 30113 ft | 449 kts | 301° |
| 2026-05-05 13:57 | 50.89526 | 7.00062 | 30334 ft | 451 kts | 301° |
| 2026-05-05 13:58 | 50.91327 | 6.95988 | 30575 ft | 452 kts | 301° |
| 2026-05-05 13:58 | 50.93139 | 6.91889 | 30827 ft | 454 kts | 301° |
| 2026-05-05 13:58 | 50.94944 | 6.87799 | 31197 ft | 453 kts | 301° |
| 2026-05-05 13:58 | 50.96746 | 6.83714 | 31547 ft | 452 kts | 300° |
| 2026-05-05 13:59 | 51.00345 | 6.75554 | 32248 ft | 450 kts | 300° |
| 2026-05-05 13:59 | 51.02131 | 6.71486 | 32619 ft | 449 kts | 300° |
| 2026-05-05 14:00 | 51.05692 | 6.63350 | 33310 ft | 447 kts | 300° |
| 2026-05-05 14:00 | 51.06864 | 6.60664 | 33542 ft | 446 kts | 299° |
| 2026-05-05 14:00 | 51.09225 | 6.55239 | 33863 ft | 445 kts | 299° |
| 2026-05-05 14:00 | 51.10972 | 6.51226 | 33894 ft | 437 kts | 299° |
| 2026-05-05 14:01 | 51.14411 | 6.43311 | 33891 ft | 433 kts | 299° |
| 2026-05-05 14:01 | 51.17815 | 6.35426 | 33894 ft | 431 kts | 299° |
| 2026-05-05 14:02 | 51.21215 | 6.27559 | 33886 ft | 431 kts | 299° |
| 2026-05-05 14:02 | 51.24607 | 6.19668 | 33890 ft | 431 kts | 299° |
| 2026-05-05 14:03 | 51.27987 | 6.11756 | 33887 ft | 431 kts | 299° |
| 2026-05-05 14:03 | 51.31300 | 6.03785 | 33885 ft | 430 kts | 298° |
| 2026-05-05 14:04 | 51.34534 | 5.95803 | 33883 ft | 430 kts | 298° |
| 2026-05-05 14:04 | 51.37997 | 5.87966 | 33875 ft | 437 kts | 308° |
| 2026-05-05 14:05 | 51.42656 | 5.81590 | 33882 ft | 443 kts | 318° |
| 2026-05-05 14:05 | 51.47526 | 5.75540 | 33892 ft | 443 kts | 317° |
| 2026-05-05 14:06 | 51.52391 | 5.69469 | 33902 ft | 443 kts | 317° |
| 2026-05-05 14:06 | 51.57259 | 5.63388 | 33909 ft | 443 kts | 317° |
| 2026-05-05 14:07 | 51.62123 | 5.57297 | 33917 ft | 443 kts | 317° |
| 2026-05-05 14:07 | 51.66978 | 5.51206 | 33917 ft | 442 kts | 317° |
| 2026-05-05 14:08 | 51.71827 | 5.45110 | 33915 ft | 442 kts | 317° |
| 2026-05-05 14:08 | 51.76664 | 5.39001 | 33914 ft | 441 kts | 317° |
| 2026-05-05 14:09 | 51.81495 | 5.32874 | 33910 ft | 441 kts | 317° |
| 2026-05-05 14:09 | 51.86314 | 5.26745 | 33909 ft | 441 kts | 317° |
| 2026-05-05 14:10 | 51.91161 | 5.20572 | 33905 ft | 440 kts | 316° |
| 2026-05-05 14:10 | 51.95969 | 5.14424 | 33904 ft | 440 kts | 316° |
| 2026-05-05 14:11 | 52.00751 | 5.08303 | 33908 ft | 440 kts | 316° |
| 2026-05-05 14:11 | 52.05558 | 5.02145 | 33929 ft | 440 kts | 316° |
| 2026-05-05 14:12 | 52.10352 | 4.95969 | 33920 ft | 440 kts | 316° |
| 2026-05-05 14:12 | 52.15142 | 4.89772 | 33914 ft | 439 kts | 316° |
| 2026-05-05 14:13 | 52.19921 | 4.83578 | 33922 ft | 439 kts | 316° |
| 2026-05-05 14:13 | 52.24695 | 4.77377 | 33915 ft | 439 kts | 316° |
| 2026-05-05 14:14 | 52.29460 | 4.71167 | 33919 ft | 438 kts | 316° |
| 2026-05-05 14:14 | 52.34227 | 4.64948 | 33919 ft | 438 kts | 316° |
| 2026-05-05 14:15 | 52.38980 | 4.58729 | 33925 ft | 438 kts | 316° |
| 2026-05-05 14:15 | 52.43724 | 4.52487 | 33930 ft | 437 kts | 316° |
| 2026-05-05 14:16 | 52.48462 | 4.46233 | 33939 ft | 437 kts | 316° |
| 2026-05-05 14:16 | 52.53192 | 4.39988 | 33950 ft | 436 kts | 316° |
| 2026-05-05 14:17 | 52.57909 | 4.33737 | 33959 ft | 435 kts | 316° |
| 2026-05-05 14:17 | 52.62609 | 4.27489 | 33964 ft | 434 kts | 317° |
| 2026-05-05 14:18 | 52.67305 | 4.21238 | 33971 ft | 434 kts | 317° |
| 2026-05-05 14:18 | 52.71990 | 4.14982 | 33977 ft | 433 kts | 317° |
| 2026-05-05 14:19 | 52.76664 | 4.08722 | 33981 ft | 432 kts | 317° |
| 2026-05-05 14:19 | 52.81324 | 4.02456 | 33984 ft | 432 kts | 317° |
| 2026-05-05 14:20 | 52.85971 | 3.96179 | 33989 ft | 431 kts | 317° |
| 2026-05-05 14:20 | 52.90617 | 3.89907 | 33989 ft | 431 kts | 317° |
| 2026-05-05 14:21 | 52.94472 | 3.84684 | 33994 ft | 430 kts | 317° |
| 2026-05-05 14:21 | 52.99099 | 3.78391 | 33996 ft | 430 kts | 317° |
| 2026-05-05 14:22 | 53.03725 | 3.72083 | 33993 ft | 430 kts | 316° |
| 2026-05-05 14:22 | 53.08337 | 3.65765 | 33993 ft | 430 kts | 316° |
| 2026-05-05 14:23 | 53.12947 | 3.59436 | 33993 ft | 430 kts | 316° |
| 2026-05-05 14:23 | 53.17559 | 3.53098 | 33994 ft | 429 kts | 316° |
| 2026-05-05 14:24 | 53.22164 | 3.46761 | 34000 ft | 429 kts | 316° |
| 2026-05-05 14:24 | 53.26207 | 3.39604 | 34000 ft | 420 kts | 300° |
| 2026-05-05 14:25 | 53.29364 | 3.31402 | 33997 ft | 420 kts | 299° |
| 2026-05-05 14:25 | 53.32532 | 3.23211 | 33994 ft | 420 kts | 299° |
| 2026-05-05 14:26 | 53.35695 | 3.15003 | 34001 ft | 419 kts | 299° |
| 2026-05-05 14:26 | 53.38839 | 3.06773 | 34005 ft | 419 kts | 299° |
| 2026-05-05 14:27 | 53.41971 | 2.98530 | 34004 ft | 419 kts | 299° |
| 2026-05-05 14:27 | 53.45105 | 2.90287 | 34006 ft | 419 kts | 299° |
| 2026-05-05 14:28 | 53.48229 | 2.82029 | 34000 ft | 419 kts | 300° |
| 2026-05-05 14:28 | 53.51354 | 2.73756 | 33998 ft | 419 kts | 300° |
| 2026-05-05 14:29 | 53.54473 | 2.65469 | 33995 ft | 420 kts | 300° |
| 2026-05-05 14:29 | 53.57580 | 2.57209 | 33984 ft | 420 kts | 300° |
| 2026-05-05 14:30 | 53.60690 | 2.48867 | 33986 ft | 421 kts | 300° |
| 2026-05-05 14:30 | 53.63800 | 2.40499 | 33982 ft | 422 kts | 300° |
| 2026-05-05 14:31 | 53.66913 | 2.32106 | 33983 ft | 423 kts | 300° |
| 2026-05-05 14:31 | 53.70033 | 2.23686 | 33979 ft | 423 kts | 301° |
| 2026-05-05 14:32 | 53.73149 | 2.15244 | 33979 ft | 424 kts | 301° |
| 2026-05-05 14:32 | 53.76257 | 2.06780 | 33985 ft | 424 kts | 301° |
| 2026-05-05 14:33 | 53.79361 | 1.98286 | 33980 ft | 425 kts | 301° |
| 2026-05-05 14:33 | 53.82469 | 1.89782 | 33983 ft | 425 kts | 301° |
| 2026-05-05 14:34 | 53.85574 | 1.81260 | 33989 ft | 425 kts | 300° |
| 2026-05-05 14:34 | 53.88668 | 1.72715 | 33987 ft | 425 kts | 300° |
| 2026-05-05 14:35 | 53.91762 | 1.64146 | 33988 ft | 426 kts | 300° |
| 2026-05-05 14:35 | 53.94844 | 1.55569 | 33990 ft | 426 kts | 300° |
| 2026-05-05 14:36 | 53.97928 | 1.46970 | 34004 ft | 426 kts | 300° |
| 2026-05-05 14:36 | 54.01005 | 1.38367 | 34008 ft | 426 kts | 300° |
| 2026-05-05 14:37 | 54.04070 | 1.29763 | 34012 ft | 425 kts | 300° |
| 2026-05-05 14:37 | 54.07125 | 1.21157 | 34014 ft | 424 kts | 300° |
| 2026-05-05 14:38 | 54.10169 | 1.12554 | 34013 ft | 424 kts | 300° |
| 2026-05-05 14:38 | 54.13201 | 1.03960 | 34014 ft | 423 kts | 299° |
| 2026-05-05 14:39 | 54.16223 | 0.95357 | 34012 ft | 423 kts | 299° |
| 2026-05-05 14:39 | 54.19239 | 0.86754 | 34016 ft | 422 kts | 299° |
| 2026-05-05 14:40 | 54.22245 | 0.78152 | 34019 ft | 421 kts | 299° |
| 2026-05-05 14:40 | 54.25235 | 0.69545 | 34015 ft | 421 kts | 299° |
| 2026-05-05 14:41 | 54.28190 | 0.60996 | 34022 ft | 420 kts | 298° |
| 2026-05-05 14:41 | 54.31160 | 0.52393 | 34025 ft | 419 kts | 298° |
| 2026-05-05 14:42 | 54.34116 | 0.43797 | 34028 ft | 418 kts | 298° |
| 2026-05-05 14:42 | 54.37067 | 0.35210 | 34026 ft | 417 kts | 298° |
| 2026-05-05 14:43 | 54.39999 | 0.26619 | 34025 ft | 417 kts | 298° |
| 2026-05-05 14:43 | 54.42918 | 0.18032 | 34028 ft | 416 kts | 298° |
| 2026-05-05 14:44 | 54.45829 | 0.09440 | 34033 ft | 415 kts | 298° |
| 2026-05-05 14:44 | 54.48730 | 0.00861 | 34034 ft | 415 kts | 298° |
| 2026-05-05 14:45 | 54.51622 | -0.07705 | 34033 ft | 414 kts | 298° |
| 2026-05-05 14:45 | 54.54502 | -0.16295 | 34036 ft | 413 kts | 297° |
| 2026-05-05 14:46 | 54.57366 | -0.24868 | 34038 ft | 412 kts | 297° |
| 2026-05-05 14:46 | 54.60224 | -0.33436 | 34037 ft | 412 kts | 297° |
| 2026-05-05 14:47 | 54.63072 | -0.42007 | 34040 ft | 411 kts | 297° |
| 2026-05-05 14:47 | 54.65910 | -0.50574 | 34040 ft | 411 kts | 297° |
| 2026-05-05 14:48 | 54.68735 | -0.59138 | 34045 ft | 410 kts | 297° |
| 2026-05-05 14:48 | 54.71550 | -0.67715 | 34050 ft | 410 kts | 297° |
| 2026-05-05 14:49 | 54.74360 | -0.76299 | 34053 ft | 410 kts | 296° |
| 2026-05-05 14:49 | 54.77161 | -0.84886 | 34046 ft | 410 kts | 296° |
| 2026-05-05 14:50 | 54.79936 | -0.93430 | 34050 ft | 409 kts | 296° |
| 2026-05-05 14:50 | 54.82617 | -1.02111 | 34045 ft | 408 kts | 295° |
| 2026-05-05 14:51 | 54.85228 | -1.10852 | 34051 ft | 408 kts | 294° |
| 2026-05-05 14:51 | 54.87838 | -1.19589 | 34064 ft | 407 kts | 294° |
| 2026-05-05 14:52 | 54.90452 | -1.28287 | 33763 ft | 402 kts | 294° |
| 2026-05-05 14:52 | 54.91739 | -1.32570 | 33501 ft | 398 kts | 294° |
| 2026-05-05 14:52 | 54.93012 | -1.36824 | 33240 ft | 395 kts | 294° |
| 2026-05-05 14:53 | 54.94280 | -1.41053 | 32966 ft | 393 kts | 294° |
| 2026-05-05 14:53 | 54.95538 | -1.45255 | 32704 ft | 391 kts | 294° |
| 2026-05-05 14:53 | 54.96788 | -1.49448 | 32442 ft | 388 kts | 294° |
| 2026-05-05 14:53 | 54.98016 | -1.53588 | 32051 ft | 383 kts | 294° |
| 2026-05-05 14:54 | 54.99229 | -1.57691 | 31593 ft | 380 kts | 294° |
| 2026-05-05 14:54 | 55.00433 | -1.61757 | 31144 ft | 376 kts | 294° |
| 2026-05-05 14:54 | 55.01625 | -1.65792 | 30709 ft | 373 kts | 294° |
| 2026-05-05 14:54 | 55.02805 | -1.69788 | 30266 ft | 369 kts | 294° |
| 2026-05-05 14:55 | 55.03974 | -1.73750 | 29802 ft | 366 kts | 294° |
| 2026-05-05 14:55 | 55.05126 | -1.77664 | 29373 ft | 360 kts | 294° |
| 2026-05-05 14:55 | 55.06262 | -1.81531 | 28962 ft | 355 kts | 294° |
| 2026-05-05 14:55 | 55.07379 | -1.85341 | 28566 ft | 350 kts | 294° |
| 2026-05-05 14:56 | 55.08478 | -1.89091 | 28184 ft | 345 kts | 294° |
| 2026-05-05 14:56 | 55.09562 | -1.92808 | 27802 ft | 341 kts | 294° |
| 2026-05-05 14:56 | 55.10632 | -1.96475 | 27420 ft | 337 kts | 294° |
| 2026-05-05 14:56 | 55.11690 | -2.00100 | 27042 ft | 333 kts | 294° |
| 2026-05-05 14:57 | 55.12734 | -2.03680 | 26669 ft | 329 kts | 294° |
| 2026-05-05 14:57 | 55.13763 | -2.07223 | 26291 ft | 326 kts | 294° |
| 2026-05-05 14:57 | 55.14780 | -2.10743 | 25911 ft | 323 kts | 294° |
| 2026-05-05 14:57 | 55.15789 | -2.14248 | 25532 ft | 322 kts | 294° |
| 2026-05-05 14:58 | 55.16794 | -2.17732 | 25140 ft | 320 kts | 294° |
| 2026-05-05 14:58 | 55.17796 | -2.21201 | 24759 ft | 319 kts | 294° |
| 2026-05-05 14:58 | 55.18795 | -2.24658 | 24355 ft | 318 kts | 294° |
| 2026-05-05 14:58 | 55.19792 | -2.28103 | 23949 ft | 316 kts | 294° |
| 2026-05-05 14:59 | 55.20783 | -2.31537 | 23547 ft | 316 kts | 294° |
| 2026-05-05 14:59 | 55.21767 | -2.34957 | 23113 ft | 313 kts | 294° |
| 2026-05-05 14:59 | 55.22739 | -2.38359 | 22717 ft | 311 kts | 294° |
| 2026-05-05 14:59 | 55.23700 | -2.41738 | 22320 ft | 309 kts | 294° |
| 2026-05-05 15:00 | 55.24657 | -2.45097 | 21954 ft | 307 kts | 294° |
| 2026-05-05 15:00 | 55.25289 | -2.47311 | 21687 ft | 306 kts | 294° |
| 2026-05-05 15:00 | 55.26560 | -2.51751 | 21185 ft | 304 kts | 294° |
| 2026-05-05 15:00 | 55.27504 | -2.55061 | 20812 ft | 303 kts | 295° |
| 2026-05-05 15:01 | 55.28442 | -2.58355 | 20447 ft | 301 kts | 295° |
| 2026-05-05 15:01 | 55.29375 | -2.61644 | 20082 ft | 301 kts | 294° |
| 2026-05-05 15:01 | 55.30303 | -2.64926 | 19706 ft | 300 kts | 294° |
| 2026-05-05 15:01 | 55.31226 | -2.68204 | 19338 ft | 299 kts | 294° |
| 2026-05-05 15:02 | 55.32150 | -2.71481 | 18976 ft | 299 kts | 295° |
| 2026-05-05 15:02 | 55.33073 | -2.74752 | 18597 ft | 299 kts | 295° |
| 2026-05-05 15:02 | 55.33993 | -2.78024 | 18225 ft | 299 kts | 294° |
| 2026-05-05 15:02 | 55.34909 | -2.81293 | 17837 ft | 297 kts | 294° |
| 2026-05-05 15:03 | 55.35819 | -2.84551 | 17477 ft | 296 kts | 294° |
| 2026-05-05 15:03 | 55.36724 | -2.87788 | 17134 ft | 294 kts | 295° |
| 2026-05-05 15:03 | 55.37628 | -2.91009 | 16783 ft | 293 kts | 295° |
| 2026-05-05 15:03 | 55.38528 | -2.94217 | 16431 ft | 292 kts | 295° |
| 2026-05-05 15:04 | 55.39121 | -2.96334 | 16207 ft | 292 kts | 295° |
| 2026-05-05 15:04 | 55.40015 | -2.99531 | 15856 ft | 290 kts | 295° |
| 2026-05-05 15:04 | 55.41192 | -3.03747 | 15407 ft | 289 kts | 295° |
| 2026-05-05 15:04 | 55.41792 | -3.05897 | 15177 ft | 290 kts | 295° |
| 2026-05-05 15:05 | 55.43764 | -3.13014 | 14407 ft | 348 kts | 295° |
| 2026-05-05 15:05 | 55.44839 | -3.16895 | 13987 ft | 355 kts | 295° |
| 2026-05-05 15:05 | 55.45919 | -3.20795 | 13532 ft | 354 kts | 295° |
| 2026-05-05 15:06 | 55.46994 | -3.24673 | 13301 ft | 351 kts | 295° |
| 2026-05-05 15:06 | 55.48065 | -3.28549 | 13190 ft | 352 kts | 295° |
| 2026-05-05 15:06 | 55.49132 | -3.32419 | 13031 ft | 351 kts | 295° |
| 2026-05-05 15:06 | 55.50278 | -3.36214 | 12841 ft | 351 kts | 304° |
| 2026-05-05 15:07 | 55.51950 | -3.39345 | 12294 ft | 350 kts | 316° |
| 2026-05-05 15:07 | 55.53789 | -3.42137 | 11826 ft | 347 kts | 319° |
| 2026-05-05 15:07 | 55.55669 | -3.44777 | 11350 ft | 342 kts | 320° |
| 2026-05-05 15:07 | 55.57499 | -3.47272 | 10901 ft | 323 kts | 321° |
| 2026-05-05 15:08 | 55.59224 | -3.49635 | 10479 ft | 305 kts | 320° |
| 2026-05-05 15:08 | 55.60850 | -3.51901 | 10077 ft | 291 kts | 320° |
| 2026-05-05 15:08 | 55.62391 | -3.54089 | 9667 ft | 277 kts | 319° |
| 2026-05-05 15:08 | 55.63862 | -3.56203 | 9294 ft | 268 kts | 319° |
| 2026-05-05 15:09 | 55.65297 | -3.58280 | 8930 ft | 265 kts | 319° |
| 2026-05-05 15:09 | 55.66724 | -3.60354 | 8574 ft | 265 kts | 319° |
| 2026-05-05 15:09 | 55.68128 | -3.62397 | 8219 ft | 254 kts | 319° |
| 2026-05-05 15:09 | 55.69460 | -3.64332 | 7882 ft | 242 kts | 319° |
| 2026-05-05 15:10 | 55.70734 | -3.66176 | 7559 ft | 231 kts | 319° |
| 2026-05-05 15:10 | 55.71949 | -3.67937 | 7261 ft | 222 kts | 320° |
| 2026-05-05 15:10 | 55.73144 | -3.69672 | 6962 ft | 222 kts | 320° |
| 2026-05-05 15:10 | 55.74342 | -3.71416 | 6651 ft | 223 kts | 320° |
| 2026-05-05 15:11 | 55.75543 | -3.73183 | 6342 ft | 225 kts | 318° |
| 2026-05-05 15:11 | 55.76727 | -3.74979 | 5885 ft | 225 kts | 327° |
| 2026-05-05 15:11 | 55.78170 | -3.76094 | 5384 ft | 226 kts | 348° |
| 2026-05-05 15:11 | 55.79692 | -3.76221 | 5203 ft | 213 kts | 8° |
| 2026-05-05 15:12 | 55.81055 | -3.75520 | 5056 ft | 204 kts | 26° |
| 2026-05-05 15:12 | 55.82234 | -3.74089 | 4825 ft | 203 kts | 44° |
| 2026-05-05 15:12 | 55.83090 | -3.72097 | 4566 ft | 204 kts | 58° |
| 2026-05-05 15:12 | 55.83823 | -3.69962 | 4309 ft | 199 kts | 58° |
| 2026-05-05 15:13 | 55.84532 | -3.67901 | 4025 ft | 192 kts | 58° |
| 2026-05-05 15:13 | 55.85216 | -3.65910 | 3752 ft | 185 kts | 58° |
| 2026-05-05 15:13 | 55.85875 | -3.63989 | 3520 ft | 180 kts | 59° |
| 2026-05-05 15:13 | 55.86518 | -3.62116 | 3276 ft | 175 kts | 59° |
| 2026-05-05 15:14 | 55.87134 | -3.60319 | 3033 ft | 170 kts | 59° |
| 2026-05-05 15:14 | 55.87735 | -3.58563 | 2818 ft | 163 kts | 60° |
| 2026-05-05 15:14 | 55.88312 | -3.56879 | 2588 ft | 156 kts | 60° |
| 2026-05-05 15:14 | 55.88857 | -3.55285 | 2389 ft | 147 kts | 61° |
| 2026-05-05 15:15 | 55.89368 | -3.53789 | 2180 ft | 137 kts | 61° |
| 2026-05-05 15:15 | 55.89858 | -3.52356 | 1991 ft | 134 kts | 61° |
| 2026-05-05 15:15 | 55.90339 | -3.50944 | 1816 ft | 133 kts | 61° |
| 2026-05-05 15:15 | 55.90822 | -3.49531 | 1620 ft | 133 kts | 62° |
| 2026-05-05 15:16 | 55.91300 | -3.48126 | 1432 ft | 132 kts | 62° |
| 2026-05-05 15:16 | 55.91773 | -3.46737 | 1241 ft | 132 kts | 62° |
| 2026-05-05 15:16 | 55.92250 | -3.45337 | 1049 ft | 132 kts | 61° |
| 2026-05-05 15:16 | 55.92724 | -3.43948 | 851 ft | 131 kts | 61° |
| 2026-05-05 15:17 | 55.93194 | -3.42556 | 677 ft | 130 kts | 61° |
| 2026-05-05 15:17 | 55.93666 | -3.41174 | 479 ft | 130 kts | 62° |
| 2026-05-05 15:17 | 55.94136 | -3.39799 | 302 ft | 130 kts | 63° |
| 2026-05-05 15:17 | 55.94604 | -3.38422 | 138 ft | 128 kts | 64° |
| 2026-05-05 15:18 | 55.94999 | -3.37246 | 112 ft | 79 kts | 58° |
| 2026-05-05 15:18 | 55.95163 | -3.36763 | 112 ft | 32 kts | 58° |
| 2026-05-05 15:18 | 55.95265 | -3.36457 | 110 ft | 16 kts | 71° |
| 2026-05-05 15:18 | 55.95218 | -3.36379 | 114 ft | 8 kts | 150° |
| 2026-05-05 15:19 | 55.95168 | -3.36326 | 115 ft | 12 kts | 149° |
| 2026-05-05 15:19 | 55.95093 | -3.36404 | 113 ft | 14 kts | 239° |
| 2026-05-05 15:19 | 55.95044 | -3.36550 | 115 ft | 13 kts | 239° |
| 2026-05-05 15:19 | 55.94988 | -3.36715 | 114 ft | 21 kts | 238° |
| 2026-05-05 15:20 | 55.94901 | -3.36806 | 116 ft | 15 kts | 154° |
| 2026-05-05 15:20 | 55.94811 | -3.36775 | 116 ft | 9 kts | 162° |
| 2026-05-05 15:20 | 55.94800 | -3.36682 | 116 ft | 5 kts | 85° |
| 2026-05-05 15:20 | 55.94801 | -3.36638 | 116 ft | 0 kts | 89° |